sensor_id;sensor_type;location;lat;lon;timestamp;P1;durP1;ratioP1;P2;durP2;ratioP2
13477;SDS011;12598;62.382;17.344;2023-02-10T00:00:47;0.93;;;0.47;;
13477;SDS011;12598;62.382;17.344;2023-02-10T00:01:49;0.60;;;0.40;;
13477;SDS011;12598;62.382;17.344;2023-02-10T00:02:51;0.55;;;0.22;;
13477;SDS011;12598;62.382;17.344;2023-02-10T00:03:53;0.85;;;0.50;;
13477;SDS011;12598;62.382;17.344;2023-02-10T00:04:55;0.95;;;0.30;;
13477;SDS011;12598;62.382;17.344;2023-02-10T00:05:57;0.60;;;0.30;;
13477;SDS011;12598;62.382;17.344;2023-02-10T00:06:59;1.17;;;0.52;;
13477;SDS011;12598;62.382;17.344;2023-02-10T00:08:01;2.42;;;0.50;;
13477;SDS011;12598;62.382;17.344;2023-02-10T00:09:03;0.85;;;0.32;;
13477;SDS011;12598;62.382;17.344;2023-02-10T00:10:05;2.97;;;0.47;;
13477;SDS011;12598;62.382;17.344;2023-02-10T00:11:09;0.93;;;0.38;;
13477;SDS011;12598;62.382;17.344;2023-02-10T00:12:12;0.80;;;0.43;;
13477;SDS011;12598;62.382;17.344;2023-02-10T00:13:15;1.10;;;0.47;;
13477;SDS011;12598;62.382;17.344;2023-02-10T00:14:17;1.73;;;0.20;;
13477;SDS011;12598;62.382;17.344;2023-02-10T00:15:20;2.03;;;0.40;;
13477;SDS011;12598;62.382;17.344;2023-02-10T00:16:22;0.43;;;0.28;;
13477;SDS011;12598;62.382;17.344;2023-02-10T00:17:24;0.75;;;0.40;;
13477;SDS011;12598;62.382;17.344;2023-02-10T00:18:26;0.93;;;0.50;;
13477;SDS011;12598;62.382;17.344;2023-02-10T00:19:28;1.38;;;0.50;;
13477;SDS011;12598;62.382;17.344;2023-02-10T00:20:32;2.63;;;0.60;;
13477;SDS011;12598;62.382;17.344;2023-02-10T00:21:34;1.40;;;0.40;;
13477;SDS011;12598;62.382;17.344;2023-02-10T00:22:36;1.13;;;0.50;;
13477;SDS011;12598;62.382;17.344;2023-02-10T00:23:38;0.82;;;0.40;;
13477;SDS011;12598;62.382;17.344;2023-02-10T00:24:40;0.70;;;0.40;;
13477;SDS011;12598;62.382;17.344;2023-02-10T00:25:41;0.73;;;0.40;;
13477;SDS011;12598;62.382;17.344;2023-02-10T00:26:43;0.70;;;0.40;;
13477;SDS011;12598;62.382;17.344;2023-02-10T00:27:45;0.95;;;0.32;;
13477;SDS011;12598;62.382;17.344;2023-02-10T00:28:47;0.82;;;0.30;;
13477;SDS011;12598;62.382;17.344;2023-02-10T00:29:49;1.52;;;0.70;;
13477;SDS011;12598;62.382;17.344;2023-02-10T00:30:51;0.75;;;0.30;;
13477;SDS011;12598;62.382;17.344;2023-02-10T00:31:53;1.27;;;0.40;;
13477;SDS011;12598;62.382;17.344;2023-02-10T00:32:55;1.10;;;0.40;;
13477;SDS011;12598;62.382;17.344;2023-02-10T00:33:57;1.10;;;0.30;;
13477;SDS011;12598;62.382;17.344;2023-02-10T00:35:01;1.27;;;0.50;;
13477;SDS011;12598;62.382;17.344;2023-02-10T00:36:07;1.00;;;0.45;;
13477;SDS011;12598;62.382;17.344;2023-02-10T00:37:10;0.77;;;0.30;;
13477;SDS011;12598;62.382;17.344;2023-02-10T00:38:12;1.05;;;0.45;;
13477;SDS011;12598;62.382;17.344;2023-02-10T00:39:14;0.57;;;0.35;;
13477;SDS011;12598;62.382;17.344;2023-02-10T00:40:17;1.15;;;0.35;;
13477;SDS011;12598;62.382;17.344;2023-02-10T00:41:20;0.88;;;0.40;;
13477;SDS011;12598;62.382;17.344;2023-02-10T00:42:23;1.75;;;0.47;;
13477;SDS011;12598;62.382;17.344;2023-02-10T00:43:25;0.77;;;0.30;;
13477;SDS011;12598;62.382;17.344;2023-02-10T00:44:27;1.27;;;0.32;;
13477;SDS011;12598;62.382;17.344;2023-02-10T00:45:30;0.52;;;0.30;;
13477;SDS011;12598;62.382;17.344;2023-02-10T00:46:31;0.77;;;0.35;;
13477;SDS011;12598;62.382;17.344;2023-02-10T00:47:33;1.08;;;0.30;;
13477;SDS011;12598;62.382;17.344;2023-02-10T00:48:35;0.60;;;0.22;;
13477;SDS011;12598;62.382;17.344;2023-02-10T00:49:37;0.40;;;0.20;;
13477;SDS011;12598;62.382;17.344;2023-02-10T00:50:39;0.68;;;0.28;;
13477;SDS011;12598;62.382;17.344;2023-02-10T00:51:41;0.60;;;0.25;;
13477;SDS011;12598;62.382;17.344;2023-02-10T00:52:43;1.00;;;0.30;;
13477;SDS011;12598;62.382;17.344;2023-02-10T00:53:45;2.05;;;0.40;;
13477;SDS011;12598;62.382;17.344;2023-02-10T00:54:50;1.00;;;0.20;;
13477;SDS011;12598;62.382;17.344;2023-02-10T00:55:52;0.80;;;0.40;;
13477;SDS011;12598;62.382;17.344;2023-02-10T00:56:57;1.25;;;0.30;;
13477;SDS011;12598;62.382;17.344;2023-02-10T00:57:58;1.38;;;0.47;;
13477;SDS011;12598;62.382;17.344;2023-02-10T00:59:00;1.02;;;0.40;;
13477;SDS011;12598;62.382;17.344;2023-02-10T01:00:03;1.05;;;0.32;;
13477;SDS011;12598;62.382;17.344;2023-02-10T01:01:07;0.95;;;0.40;;
13477;SDS011;12598;62.382;17.344;2023-02-10T01:02:10;1.10;;;0.40;;
13477;SDS011;12598;62.382;17.344;2023-02-10T01:03:12;0.70;;;0.25;;
13477;SDS011;12598;62.382;17.344;2023-02-10T01:04:15;2.47;;;0.47;;
13477;SDS011;12598;62.382;17.344;2023-02-10T01:05:17;0.65;;;0.30;;
13477;SDS011;12598;62.382;17.344;2023-02-10T01:06:19;1.05;;;0.40;;
13477;SDS011;12598;62.382;17.344;2023-02-10T01:07:20;0.60;;;0.20;;
13477;SDS011;12598;62.382;17.344;2023-02-10T01:08:22;0.75;;;0.40;;
13477;SDS011;12598;62.382;17.344;2023-02-10T01:09:24;0.90;;;0.43;;
13477;SDS011;12598;62.382;17.344;2023-02-10T01:10:26;0.88;;;0.40;;
13477;SDS011;12598;62.382;17.344;2023-02-10T01:11:29;2.88;;;0.60;;
13477;SDS011;12598;62.382;17.344;2023-02-10T01:12:31;0.85;;;0.30;;
13477;SDS011;12598;62.382;17.344;2023-02-10T01:13:33;1.20;;;0.60;;
13477;SDS011;12598;62.382;17.344;2023-02-10T01:14:37;1.27;;;0.40;;
13477;SDS011;12598;62.382;17.344;2023-02-10T01:15:45;0.60;;;0.30;;
13477;SDS011;12598;62.382;17.344;2023-02-10T01:16:48;1.30;;;0.40;;
13477;SDS011;12598;62.382;17.344;2023-02-10T01:17:51;0.63;;;0.30;;
13477;SDS011;12598;62.382;17.344;2023-02-10T01:18:53;1.23;;;0.40;;
13477;SDS011;12598;62.382;17.344;2023-02-10T01:19:55;2.08;;;0.50;;
13477;SDS011;12598;62.382;17.344;2023-02-10T01:20:57;0.68;;;0.32;;
13477;SDS011;12598;62.382;17.344;2023-02-10T01:21:59;1.48;;;0.40;;
13477;SDS011;12598;62.382;17.344;2023-02-10T01:23:01;0.75;;;0.40;;
13477;SDS011;12598;62.382;17.344;2023-02-10T01:24:03;1.00;;;0.30;;
13477;SDS011;12598;62.382;17.344;2023-02-10T01:25:06;0.60;;;0.40;;
13477;SDS011;12598;62.382;17.344;2023-02-10T01:26:08;1.17;;;0.30;;
13477;SDS011;12598;62.382;17.344;2023-02-10T01:27:10;0.95;;;0.50;;
13477;SDS011;12598;62.382;17.344;2023-02-10T01:28:13;0.47;;;0.20;;
13477;SDS011;12598;62.382;17.344;2023-02-10T01:29:15;1.50;;;0.47;;
13477;SDS011;12598;62.382;17.344;2023-02-10T01:30:17;1.50;;;0.40;;
13477;SDS011;12598;62.382;17.344;2023-02-10T01:31:20;0.90;;;0.43;;
13477;SDS011;12598;62.382;17.344;2023-02-10T01:32:22;0.85;;;0.50;;
13477;SDS011;12598;62.382;17.344;2023-02-10T01:33:24;1.90;;;0.43;;
13477;SDS011;12598;62.382;17.344;2023-02-10T01:34:26;0.70;;;0.30;;
13477;SDS011;12598;62.382;17.344;2023-02-10T01:35:28;0.73;;;0.28;;
13477;SDS011;12598;62.382;17.344;2023-02-10T01:36:30;1.92;;;0.50;;
13477;SDS011;12598;62.382;17.344;2023-02-10T01:37:32;1.20;;;0.45;;
13477;SDS011;12598;62.382;17.344;2023-02-10T01:38:35;1.60;;;0.40;;
13477;SDS011;12598;62.382;17.344;2023-02-10T01:39:37;1.17;;;0.32;;
13477;SDS011;12598;62.382;17.344;2023-02-10T01:40:39;2.15;;;0.43;;
13477;SDS011;12598;62.382;17.344;2023-02-10T01:41:41;0.85;;;0.40;;
13477;SDS011;12598;62.382;17.344;2023-02-10T01:42:43;1.83;;;0.40;;
13477;SDS011;12598;62.382;17.344;2023-02-10T01:46:28;0.50;;;0.30;;
13477;SDS011;12598;62.382;17.344;2023-02-10T01:47:32;1.27;;;0.50;;
13477;SDS011;12598;62.382;17.344;2023-02-10T01:48:34;1.48;;;0.52;;
13477;SDS011;12598;62.382;17.344;2023-02-10T01:49:38;0.95;;;0.32;;
13477;SDS011;12598;62.382;17.344;2023-02-10T01:50:45;1.13;;;0.47;;
13477;SDS011;12598;62.382;17.344;2023-02-10T01:51:53;1.35;;;0.57;;
13477;SDS011;12598;62.382;17.344;2023-02-10T01:53:00;1.45;;;0.40;;
13477;SDS011;12598;62.382;17.344;2023-02-10T01:54:05;0.80;;;0.43;;
13477;SDS011;12598;62.382;17.344;2023-02-10T01:55:10;1.23;;;0.47;;
13477;SDS011;12598;62.382;17.344;2023-02-10T01:56:14;1.55;;;0.57;;
13477;SDS011;12598;62.382;17.344;2023-02-10T01:57:19;1.05;;;0.30;;
13477;SDS011;12598;62.382;17.344;2023-02-10T01:58:23;2.60;;;0.70;;
13477;SDS011;12598;62.382;17.344;2023-02-10T01:59:30;2.00;;;0.65;;
13477;SDS011;12598;62.382;17.344;2023-02-10T02:00:37;0.85;;;0.30;;
13477;SDS011;12598;62.382;17.344;2023-02-10T02:01:39;2.13;;;0.55;;
13477;SDS011;12598;62.382;17.344;2023-02-10T02:02:42;2.75;;;0.47;;
13477;SDS011;12598;62.382;17.344;2023-02-10T02:03:45;1.55;;;0.73;;
13477;SDS011;12598;62.382;17.344;2023-02-10T02:06:02;0.32;;;0.20;;
13477;SDS011;12598;62.382;17.344;2023-02-10T02:07:03;1.15;;;0.38;;
13477;SDS011;12598;62.382;17.344;2023-02-10T02:09:12;1.50;;;0.45;;
13477;SDS011;12598;62.382;17.344;2023-02-10T02:10:14;0.82;;;0.40;;
13477;SDS011;12598;62.382;17.344;2023-02-10T02:11:33;0.75;;;0.30;;
13477;SDS011;12598;62.382;17.344;2023-02-10T02:12:54;0.60;;;0.43;;
13477;SDS011;12598;62.382;17.344;2023-02-10T02:15:14;1.23;;;0.43;;
13477;SDS011;12598;62.382;17.344;2023-02-10T02:16:34;0.85;;;0.50;;
13477;SDS011;12598;62.382;17.344;2023-02-10T02:18:12;1.17;;;0.40;;
13477;SDS011;12598;62.382;17.344;2023-02-10T02:22:47;2.17;;;0.50;;
13477;SDS011;12598;62.382;17.344;2023-02-10T02:25:08;1.67;;;0.47;;
13477;SDS011;12598;62.382;17.344;2023-02-10T02:32:39;0.75;;;0.30;;
13477;SDS011;12598;62.382;17.344;2023-02-10T02:35:28;2.58;;;0.52;;
13477;SDS011;12598;62.382;17.344;2023-02-10T02:36:47;1.25;;;0.30;;
13477;SDS011;12598;62.382;17.344;2023-02-10T02:37:53;0.73;;;0.30;;
13477;SDS011;12598;62.382;17.344;2023-02-10T02:39:00;2.13;;;0.35;;
13477;SDS011;12598;62.382;17.344;2023-02-10T02:40:04;0.75;;;0.38;;
13477;SDS011;12598;62.382;17.344;2023-02-10T02:41:07;0.55;;;0.20;;
13477;SDS011;12598;62.382;17.344;2023-02-10T02:43:17;1.25;;;0.38;;
13477;SDS011;12598;62.382;17.344;2023-02-10T02:44:19;0.82;;;0.30;;
13477;SDS011;12598;62.382;17.344;2023-02-10T02:45:25;1.63;;;0.25;;
13477;SDS011;12598;62.382;17.344;2023-02-10T02:54:25;0.77;;;0.25;;
13477;SDS011;12598;62.382;17.344;2023-02-10T02:55:50;1.02;;;0.40;;
13477;SDS011;12598;62.382;17.344;2023-02-10T03:00:35;0.82;;;0.40;;
13477;SDS011;12598;62.382;17.344;2023-02-10T03:01:42;1.20;;;0.50;;
13477;SDS011;12598;62.382;17.344;2023-02-10T03:03:04;0.95;;;0.40;;
13477;SDS011;12598;62.382;17.344;2023-02-10T03:04:07;1.17;;;0.40;;
13477;SDS011;12598;62.382;17.344;2023-02-10T03:05:18;1.23;;;0.38;;
13477;SDS011;12598;62.382;17.344;2023-02-10T03:06:22;0.85;;;0.28;;
13477;SDS011;12598;62.382;17.344;2023-02-10T03:07:24;1.10;;;0.47;;
13477;SDS011;12598;62.382;17.344;2023-02-10T03:08:26;0.93;;;0.45;;
13477;SDS011;12598;62.382;17.344;2023-02-10T03:09:31;1.42;;;0.45;;
13477;SDS011;12598;62.382;17.344;2023-02-10T03:10:34;0.40;;;0.28;;
13477;SDS011;12598;62.382;17.344;2023-02-10T03:11:36;0.93;;;0.30;;
13477;SDS011;12598;62.382;17.344;2023-02-10T03:12:39;0.47;;;0.20;;
13477;SDS011;12598;62.382;17.344;2023-02-10T03:13:40;1.15;;;0.30;;
13477;SDS011;12598;62.382;17.344;2023-02-10T03:14:42;0.93;;;0.30;;
13477;SDS011;12598;62.382;17.344;2023-02-10T03:15:44;0.57;;;0.30;;
13477;SDS011;12598;62.382;17.344;2023-02-10T03:16:46;1.00;;;0.40;;
13477;SDS011;12598;62.382;17.344;2023-02-10T03:17:48;0.47;;;0.20;;
13477;SDS011;12598;62.382;17.344;2023-02-10T03:18:50;1.00;;;0.22;;
13477;SDS011;12598;62.382;17.344;2023-02-10T03:19:52;0.95;;;0.20;;
13477;SDS011;12598;62.382;17.344;2023-02-10T03:20:54;0.57;;;0.25;;
13477;SDS011;12598;62.382;17.344;2023-02-10T03:21:56;0.30;;;0.30;;
13477;SDS011;12598;62.382;17.344;2023-02-10T03:22:58;0.43;;;0.10;;
13477;SDS011;12598;62.382;17.344;2023-02-10T03:24:00;0.30;;;0.20;;
13477;SDS011;12598;62.382;17.344;2023-02-10T03:25:02;0.40;;;0.30;;
13477;SDS011;12598;62.382;17.344;2023-02-10T03:26:04;0.20;;;0.03;;
13477;SDS011;12598;62.382;17.344;2023-02-10T03:27:06;0.77;;;0.38;;
13477;SDS011;12598;62.382;17.344;2023-02-10T03:28:07;0.20;;;0.20;;
13477;SDS011;12598;62.382;17.344;2023-02-10T03:29:10;1.13;;;0.30;;
13477;SDS011;12598;62.382;17.344;2023-02-10T03:30:14;0.68;;;0.30;;
13477;SDS011;12598;62.382;17.344;2023-02-10T03:31:16;0.50;;;0.13;;
13477;SDS011;12598;62.382;17.344;2023-02-10T03:32:18;0.50;;;0.20;;
13477;SDS011;12598;62.382;17.344;2023-02-10T03:33:21;0.30;;;0.20;;
13477;SDS011;12598;62.382;17.344;2023-02-10T03:34:23;0.30;;;0.20;;
13477;SDS011;12598;62.382;17.344;2023-02-10T03:35:25;0.35;;;0.20;;
13477;SDS011;12598;62.382;17.344;2023-02-10T03:36:27;0.30;;;0.10;;
13477;SDS011;12598;62.382;17.344;2023-02-10T03:37:29;0.60;;;0.20;;
13477;SDS011;12598;62.382;17.344;2023-02-10T03:38:31;1.10;;;0.17;;
13477;SDS011;12598;62.382;17.344;2023-02-10T03:39:33;0.55;;;0.28;;
13477;SDS011;12598;62.382;17.344;2023-02-10T03:40:34;2.35;;;0.25;;
13477;SDS011;12598;62.382;17.344;2023-02-10T03:41:36;0.70;;;0.20;;
13477;SDS011;12598;62.382;17.344;2023-02-10T03:42:38;0.98;;;0.20;;
13477;SDS011;12598;62.382;17.344;2023-02-10T03:43:40;0.47;;;0.10;;
13477;SDS011;12598;62.382;17.344;2023-02-10T03:44:42;0.22;;;0.20;;
13477;SDS011;12598;62.382;17.344;2023-02-10T03:45:44;1.08;;;0.30;;
13477;SDS011;12598;62.382;17.344;2023-02-10T03:46:47;1.50;;;0.20;;
13477;SDS011;12598;62.382;17.344;2023-02-10T03:47:49;0.20;;;0.10;;
13477;SDS011;12598;62.382;17.344;2023-02-10T03:48:51;0.17;;;0.10;;
13477;SDS011;12598;62.382;17.344;2023-02-10T03:49:53;0.20;;;0.13;;
13477;SDS011;12598;62.382;17.344;2023-02-10T03:50:55;1.75;;;0.20;;
13477;SDS011;12598;62.382;17.344;2023-02-10T03:51:57;0.20;;;0.10;;
13477;SDS011;12598;62.382;17.344;2023-02-10T03:52:59;0.10;;;0.10;;
13477;SDS011;12598;62.382;17.344;2023-02-10T03:54:00;0.30;;;0.20;;
13477;SDS011;12598;62.382;17.344;2023-02-10T03:55:02;0.88;;;0.20;;
13477;SDS011;12598;62.382;17.344;2023-02-10T03:56:04;0.57;;;0.20;;
13477;SDS011;12598;62.382;17.344;2023-02-10T03:57:07;0.20;;;0.20;;
13477;SDS011;12598;62.382;17.344;2023-02-10T03:58:09;0.30;;;0.10;;
13477;SDS011;12598;62.382;17.344;2023-02-10T03:59:11;0.32;;;0.15;;
13477;SDS011;12598;62.382;17.344;2023-02-10T04:00:13;0.30;;;0.20;;
13477;SDS011;12598;62.382;17.344;2023-02-10T04:01:17;1.13;;;0.20;;
13477;SDS011;12598;62.382;17.344;2023-02-10T04:02:19;0.13;;;0.10;;
13477;SDS011;12598;62.382;17.344;2023-02-10T04:03:21;1.10;;;0.10;;
13477;SDS011;12598;62.382;17.344;2023-02-10T04:04:23;0.32;;;0.15;;
13477;SDS011;12598;62.382;17.344;2023-02-10T04:05:25;0.22;;;0.20;;
13477;SDS011;12598;62.382;17.344;2023-02-10T04:06:27;0.28;;;0.20;;
13477;SDS011;12598;62.382;17.344;2023-02-10T04:07:28;0.30;;;0.10;;
13477;SDS011;12598;62.382;17.344;2023-02-10T04:08:30;0.20;;;0.10;;
13477;SDS011;12598;62.382;17.344;2023-02-10T04:09:32;0.40;;;0.10;;
13477;SDS011;12598;62.382;17.344;2023-02-10T04:10:34;0.52;;;0.10;;
13477;SDS011;12598;62.382;17.344;2023-02-10T04:11:36;0.20;;;0.13;;
13477;SDS011;12598;62.382;17.344;2023-02-10T04:12:38;0.30;;;0.10;;
13477;SDS011;12598;62.382;17.344;2023-02-10T04:13:40;0.10;;;0.10;;
13477;SDS011;12598;62.382;17.344;2023-02-10T04:14:42;0.60;;;0.20;;
13477;SDS011;12598;62.382;17.344;2023-02-10T04:15:44;0.95;;;0.10;;
13477;SDS011;12598;62.382;17.344;2023-02-10T04:16:47;0.30;;;0.30;;
13477;SDS011;12598;62.382;17.344;2023-02-10T04:17:48;0.20;;;0.10;;
13477;SDS011;12598;62.382;17.344;2023-02-10T04:18:50;0.22;;;0.13;;
13477;SDS011;12598;62.382;17.344;2023-02-10T04:19:52;0.22;;;0.20;;
13477;SDS011;12598;62.382;17.344;2023-02-10T04:20:54;0.38;;;0.20;;
13477;SDS011;12598;62.382;17.344;2023-02-10T04:21:56;0.43;;;0.20;;
13477;SDS011;12598;62.382;17.344;2023-02-10T04:22:58;0.28;;;0.10;;
13477;SDS011;12598;62.382;17.344;2023-02-10T04:24:00;0.35;;;0.17;;
13477;SDS011;12598;62.382;17.344;2023-02-10T04:25:01;0.20;;;0.10;;
13477;SDS011;12598;62.382;17.344;2023-02-10T04:26:03;0.22;;;0.20;;
13477;SDS011;12598;62.382;17.344;2023-02-10T04:27:06;0.80;;;0.20;;
13477;SDS011;12598;62.382;17.344;2023-02-10T04:28:07;0.20;;;0.10;;
13477;SDS011;12598;62.382;17.344;2023-02-10T04:29:09;0.45;;;0.10;;
13477;SDS011;12598;62.382;17.344;2023-02-10T04:30:11;1.20;;;0.20;;
13477;SDS011;12598;62.382;17.344;2023-02-10T04:31:13;0.90;;;0.30;;
13477;SDS011;12598;62.382;17.344;2023-02-10T04:32:15;0.50;;;0.20;;
13477;SDS011;12598;62.382;17.344;2023-02-10T04:33:17;0.38;;;0.25;;
13477;SDS011;12598;62.382;17.344;2023-02-10T04:34:19;1.33;;;0.30;;
13477;SDS011;12598;62.382;17.344;2023-02-10T04:35:21;0.70;;;0.15;;
13477;SDS011;12598;62.382;17.344;2023-02-10T04:36:23;1.35;;;0.30;;
13477;SDS011;12598;62.382;17.344;2023-02-10T04:37:25;0.70;;;0.30;;
13477;SDS011;12598;62.382;17.344;2023-02-10T04:38:27;0.20;;;0.13;;
13477;SDS011;12598;62.382;17.344;2023-02-10T04:39:29;1.67;;;0.20;;
13477;SDS011;12598;62.382;17.344;2023-02-10T04:40:31;1.15;;;0.30;;
13477;SDS011;12598;62.382;17.344;2023-02-10T04:41:32;1.23;;;0.20;;
13477;SDS011;12598;62.382;17.344;2023-02-10T04:42:34;0.75;;;0.30;;
13477;SDS011;12598;62.382;17.344;2023-02-10T04:43:36;0.95;;;0.30;;
13477;SDS011;12598;62.382;17.344;2023-02-10T04:44:38;1.98;;;0.40;;
13477;SDS011;12598;62.382;17.344;2023-02-10T04:45:40;1.60;;;0.65;;
13477;SDS011;12598;62.382;17.344;2023-02-10T04:46:42;2.90;;;0.63;;
13477;SDS011;12598;62.382;17.344;2023-02-10T04:47:44;1.13;;;0.50;;
13477;SDS011;12598;62.382;17.344;2023-02-10T04:48:46;1.75;;;0.50;;
13477;SDS011;12598;62.382;17.344;2023-02-10T04:49:47;2.15;;;0.85;;
13477;SDS011;12598;62.382;17.344;2023-02-10T04:50:49;3.88;;;0.70;;
13477;SDS011;12598;62.382;17.344;2023-02-10T04:51:53;2.22;;;0.68;;
13477;SDS011;12598;62.382;17.344;2023-02-10T04:52:56;3.55;;;0.90;;
13477;SDS011;12598;62.382;17.344;2023-02-10T04:53:57;4.93;;;1.02;;
13477;SDS011;12598;62.382;17.344;2023-02-10T04:55:00;3.47;;;0.82;;
13477;SDS011;12598;62.382;17.344;2023-02-10T04:56:02;1.45;;;0.75;;
13477;SDS011;12598;62.382;17.344;2023-02-10T04:57:05;4.65;;;0.98;;
13477;SDS011;12598;62.382;17.344;2023-02-10T04:58:07;5.25;;;1.05;;
13477;SDS011;12598;62.382;17.344;2023-02-10T04:59:09;3.90;;;1.23;;
13477;SDS011;12598;62.382;17.344;2023-02-10T05:00:11;3.30;;;0.90;;
13477;SDS011;12598;62.382;17.344;2023-02-10T05:01:13;3.15;;;1.00;;
13477;SDS011;12598;62.382;17.344;2023-02-10T05:02:15;3.13;;;0.80;;
13477;SDS011;12598;62.382;17.344;2023-02-10T05:03:17;3.05;;;0.93;;
13477;SDS011;12598;62.382;17.344;2023-02-10T05:04:19;1.98;;;0.70;;
13477;SDS011;12598;62.382;17.344;2023-02-10T05:05:21;3.70;;;0.80;;
13477;SDS011;12598;62.382;17.344;2023-02-10T05:06:25;1.50;;;0.82;;
13477;SDS011;12598;62.382;17.344;2023-02-10T05:07:27;2.30;;;0.98;;
13477;SDS011;12598;62.382;17.344;2023-02-10T05:08:28;2.05;;;0.70;;
13477;SDS011;12598;62.382;17.344;2023-02-10T05:09:30;2.55;;;0.90;;
13477;SDS011;12598;62.382;17.344;2023-02-10T05:10:32;2.88;;;1.02;;
13477;SDS011;12598;62.382;17.344;2023-02-10T05:11:34;2.38;;;0.90;;
13477;SDS011;12598;62.382;17.344;2023-02-10T05:12:36;4.35;;;0.93;;
13477;SDS011;12598;62.382;17.344;2023-02-10T05:13:38;4.05;;;0.90;;
13477;SDS011;12598;62.382;17.344;2023-02-10T05:14:43;4.93;;;1.05;;
13477;SDS011;12598;62.382;17.344;2023-02-10T05:15:46;1.80;;;0.55;;
13477;SDS011;12598;62.382;17.344;2023-02-10T05:16:48;2.67;;;0.88;;
13477;SDS011;12598;62.382;17.344;2023-02-10T05:17:50;2.80;;;0.90;;
13477;SDS011;12598;62.382;17.344;2023-02-10T05:18:52;2.85;;;0.98;;
13477;SDS011;12598;62.382;17.344;2023-02-10T05:19:54;2.85;;;1.10;;
13477;SDS011;12598;62.382;17.344;2023-02-10T05:20:56;2.35;;;0.80;;
13477;SDS011;12598;62.382;17.344;2023-02-10T05:21:59;3.22;;;0.93;;
13477;SDS011;12598;62.382;17.344;2023-02-10T05:23:01;2.50;;;1.00;;
13477;SDS011;12598;62.382;17.344;2023-02-10T05:24:03;3.78;;;0.93;;
13477;SDS011;12598;62.382;17.344;2023-02-10T05:25:05;3.60;;;0.90;;
13477;SDS011;12598;62.382;17.344;2023-02-10T05:26:08;2.38;;;0.98;;
13477;SDS011;12598;62.382;17.344;2023-02-10T05:27:10;2.83;;;0.98;;
13477;SDS011;12598;62.382;17.344;2023-02-10T05:28:12;3.20;;;0.82;;
13477;SDS011;12598;62.382;17.344;2023-02-10T05:29:14;3.05;;;1.00;;
13477;SDS011;12598;62.382;17.344;2023-02-10T05:30:16;3.17;;;0.85;;
13477;SDS011;12598;62.382;17.344;2023-02-10T05:31:18;3.20;;;0.98;;
13477;SDS011;12598;62.382;17.344;2023-02-10T05:32:20;2.83;;;0.80;;
13477;SDS011;12598;62.382;17.344;2023-02-10T05:33:22;1.98;;;0.80;;
13477;SDS011;12598;62.382;17.344;2023-02-10T05:34:23;2.55;;;0.82;;
13477;SDS011;12598;62.382;17.344;2023-02-10T05:35:27;2.63;;;1.00;;
13477;SDS011;12598;62.382;17.344;2023-02-10T05:36:29;2.25;;;0.82;;
13477;SDS011;12598;62.382;17.344;2023-02-10T05:37:30;3.08;;;0.95;;
13477;SDS011;12598;62.382;17.344;2023-02-10T05:38:32;3.65;;;1.30;;
13477;SDS011;12598;62.382;17.344;2023-02-10T05:39:34;2.42;;;0.80;;
13477;SDS011;12598;62.382;17.344;2023-02-10T05:40:36;2.03;;;0.80;;
13477;SDS011;12598;62.382;17.344;2023-02-10T05:41:38;2.78;;;1.10;;
13477;SDS011;12598;62.382;17.344;2023-02-10T05:42:40;1.95;;;0.70;;
13477;SDS011;12598;62.382;17.344;2023-02-10T05:43:42;2.60;;;1.10;;
13477;SDS011;12598;62.382;17.344;2023-02-10T05:44:44;2.45;;;0.88;;
13477;SDS011;12598;62.382;17.344;2023-02-10T05:45:46;3.55;;;1.00;;
13477;SDS011;12598;62.382;17.344;2023-02-10T05:46:49;2.47;;;0.70;;
13477;SDS011;12598;62.382;17.344;2023-02-10T05:47:52;2.45;;;0.88;;
13477;SDS011;12598;62.382;17.344;2023-02-10T05:48:54;2.08;;;0.82;;
13477;SDS011;12598;62.382;17.344;2023-02-10T05:49:55;2.78;;;1.00;;
13477;SDS011;12598;62.382;17.344;2023-02-10T05:50:57;2.60;;;1.00;;
13477;SDS011;12598;62.382;17.344;2023-02-10T05:51:59;2.08;;;0.93;;
13477;SDS011;12598;62.382;17.344;2023-02-10T05:53:01;3.63;;;1.23;;
13477;SDS011;12598;62.382;17.344;2023-02-10T05:54:03;1.77;;;0.70;;
13477;SDS011;12598;62.382;17.344;2023-02-10T05:55:05;2.17;;;1.05;;
13477;SDS011;12598;62.382;17.344;2023-02-10T05:56:07;3.17;;;0.95;;
13477;SDS011;12598;62.382;17.344;2023-02-10T05:57:09;3.05;;;1.00;;
13477;SDS011;12598;62.382;17.344;2023-02-10T05:58:11;3.38;;;1.00;;
13477;SDS011;12598;62.382;17.344;2023-02-10T05:59:13;2.20;;;1.00;;
13477;SDS011;12598;62.382;17.344;2023-02-10T06:00:16;3.05;;;1.33;;
13477;SDS011;12598;62.382;17.344;2023-02-10T06:01:18;3.42;;;1.15;;
13477;SDS011;12598;62.382;17.344;2023-02-10T06:02:20;3.50;;;1.10;;
13477;SDS011;12598;62.382;17.344;2023-02-10T06:03:22;3.20;;;0.95;;
13477;SDS011;12598;62.382;17.344;2023-02-10T06:04:24;3.55;;;1.27;;
13477;SDS011;12598;62.382;17.344;2023-02-10T06:05:26;2.85;;;0.77;;
13477;SDS011;12598;62.382;17.344;2023-02-10T06:06:28;1.67;;;0.90;;
13477;SDS011;12598;62.382;17.344;2023-02-10T06:07:30;1.85;;;1.00;;
13477;SDS011;12598;62.382;17.344;2023-02-10T06:08:32;2.33;;;1.00;;
13477;SDS011;12598;62.382;17.344;2023-02-10T06:09:34;2.60;;;1.10;;
13477;SDS011;12598;62.382;17.344;2023-02-10T06:10:36;1.88;;;0.82;;
13477;SDS011;12598;62.382;17.344;2023-02-10T06:11:37;2.70;;;1.00;;
13477;SDS011;12598;62.382;17.344;2023-02-10T06:12:39;1.88;;;0.80;;
13477;SDS011;12598;62.382;17.344;2023-02-10T06:13:41;2.33;;;1.00;;
13477;SDS011;12598;62.382;17.344;2023-02-10T06:14:43;3.78;;;1.25;;
13477;SDS011;12598;62.382;17.344;2023-02-10T06:15:45;2.03;;;0.80;;
13477;SDS011;12598;62.382;17.344;2023-02-10T06:16:47;2.25;;;0.88;;
13477;SDS011;12598;62.382;17.344;2023-02-10T06:17:49;3.15;;;1.02;;
13477;SDS011;12598;62.382;17.344;2023-02-10T06:18:51;2.10;;;1.10;;
13477;SDS011;12598;62.382;17.344;2023-02-10T06:19:53;3.03;;;0.88;;
13477;SDS011;12598;62.382;17.344;2023-02-10T06:20:55;2.63;;;1.20;;
13477;SDS011;12598;62.382;17.344;2023-02-10T06:21:57;2.92;;;1.20;;
13477;SDS011;12598;62.382;17.344;2023-02-10T06:22:59;1.90;;;1.00;;
13477;SDS011;12598;62.382;17.344;2023-02-10T06:24:01;2.38;;;0.98;;
13477;SDS011;12598;62.382;17.344;2023-02-10T06:25:03;2.22;;;0.75;;
13477;SDS011;12598;62.382;17.344;2023-02-10T06:26:05;2.63;;;1.17;;
13477;SDS011;12598;62.382;17.344;2023-02-10T06:27:07;1.88;;;0.90;;
13477;SDS011;12598;62.382;17.344;2023-02-10T06:28:09;2.30;;;0.90;;
13477;SDS011;12598;62.382;17.344;2023-02-10T06:29:10;2.85;;;1.00;;
13477;SDS011;12598;62.382;17.344;2023-02-10T06:30:13;2.20;;;1.00;;
13477;SDS011;12598;62.382;17.344;2023-02-10T06:31:15;2.50;;;1.05;;
13477;SDS011;12598;62.382;17.344;2023-02-10T06:32:17;2.00;;;0.90;;
13477;SDS011;12598;62.382;17.344;2023-02-10T06:33:19;2.92;;;0.95;;
13477;SDS011;12598;62.382;17.344;2023-02-10T06:34:21;2.53;;;1.20;;
13477;SDS011;12598;62.382;17.344;2023-02-10T06:35:23;2.10;;;0.98;;
13477;SDS011;12598;62.382;17.344;2023-02-10T06:36:24;2.60;;;1.10;;
13477;SDS011;12598;62.382;17.344;2023-02-10T06:37:26;2.42;;;1.00;;
13477;SDS011;12598;62.382;17.344;2023-02-10T06:38:28;4.30;;;1.02;;
13477;SDS011;12598;62.382;17.344;2023-02-10T06:39:30;2.58;;;0.73;;
13477;SDS011;12598;62.382;17.344;2023-02-10T06:40:33;3.95;;;1.13;;
13477;SDS011;12598;62.382;17.344;2023-02-10T06:41:34;1.70;;;1.00;;
13477;SDS011;12598;62.382;17.344;2023-02-10T06:42:36;4.10;;;1.10;;
13477;SDS011;12598;62.382;17.344;2023-02-10T06:43:38;3.20;;;0.93;;
13477;SDS011;12598;62.382;17.344;2023-02-10T06:44:40;3.17;;;1.08;;